Pine Air, New York
Current Conditions -  °F | °C
As of 9:56 PM on Saturday 22 Nov 2014 (Local Time) from KISP Reporting Station
Broken Clouds Broken Clouds  
Wind Chill: 36°   Ceiling: 11000
Heat Index: 43°   Visibility: 10mi
Dew Point: 23°   Wind: 13mph
Humidity: 45%   Direction: 230°SW
Pressure: 30.2"   Gusts: NA
Location:  40.7837°N, 73.252°W
Report Text: KISP 230256Z 23011KT 10SM SCT070 BKN110 06/M05 A3020 RMK AO2 SLP227 T00611050 58010
Loading
Personal Weather Stations






























Interactive Weather Map New forecast layout! Learn more

10-Day Weather Forecast

Advertisements
Track Severe Weather on mobile